Time;durP1;ratioP1;P1;durP2;ratioP2;P2;SDS_P1;SDS_P2;PMS_P1;PMS_P2;Temp;Humidity;BMP_temperature;BMP_pressure;BME280_temperature;BME280_humidity;BME280_pressure;Samples;Min_cycle;Max_cycle;Signal;HPM_P1;HPM_P2
2022/04/30 00:02:17;;;;;;;11.15;10.23;;;;;;;-141.48;100.00;69781.59;5203260;28;20490;-54
2022/04/30 00:04:48;;;;;;;11.93;10.93;;;;;;;-141.48;100.00;69781.59;5186354;28;20040;-53
2022/04/30 00:07:20;;;;;;;10.13;9.25;;;;;;;-141.48;100.00;69781.59;5186592;28;20029;-54
2022/04/30 00:09:50;;;;;;;12.45;11.35;;;;;;;-141.48;100.00;69781.59;5186606;28;20057;-55
2022/04/30 00:12:23;;;;;;;11.85;10.65;;;;;;;-141.48;100.00;69781.59;5186720;28;20490;-54
2022/04/30 00:14:55;;;;;;;9.95;9.23;;;;;;;-141.48;100.00;69781.59;5188208;28;20033;-54
2022/04/30 00:17:25;;;;;;;9.68;9.00;;;;;;;-141.48;100.00;69781.59;5190816;28;20029;-54
2022/04/30 00:19:56;;;;;;;18.48;10.30;;;;;;;-141.48;100.00;69781.59;5190996;28;20668;-54
2022/04/30 00:22:26;;;;;;;11.40;10.25;;;;;;;-141.48;100.00;69781.59;5208744;28;20497;-54
2022/04/30 00:24:57;;;;;;;10.35;9.68;;;;;;;-141.48;100.00;69781.59;5190380;28;20021;-57
2022/04/30 00:27:28;;;;;;;10.38;9.45;;;;;;;-141.48;100.00;69781.59;5190712;28;20021;-55
2022/04/30 00:29:58;;;;;;;11.68;9.15;;;;;;;-141.48;100.00;69781.59;5190402;28;20025;-55
2022/04/30 00:32:30;;;;;;;17.38;9.55;;;;;;;-141.48;100.00;69781.59;5190553;28;20516;-54
2022/04/30 00:35:02;;;;;;;11.43;10.45;;;;;;;-141.48;100.00;69781.59;5190090;28;20072;-54
2022/04/30 00:37:33;;;;;;;10.73;9.77;;;;;;;-141.48;100.00;69781.59;5190569;28;20390;-55
2022/04/30 00:40:04;;;;;;;9.73;9.05;;;;;;;-141.48;100.00;69781.59;5206820;28;20036;-55
2022/04/30 00:42:35;;;;;;;11.65;10.45;;;;;;;-141.48;100.00;69781.59;5190231;28;20036;-56
2022/04/30 00:45:05;;;;;;;10.30;9.30;;;;;;;-141.48;100.00;69781.59;5190265;28;20398;-56
2022/04/30 00:47:36;;;;;;;12.25;8.27;;;;;;;-141.48;100.00;69781.59;5190533;28;20116;-57
2022/04/30 00:50:07;;;;;;;10.63;9.80;;;;;;;-141.48;100.00;69781.59;5190500;28;20508;-55
2022/04/30 00:52:38;;;;;;;8.85;8.25;;;;;;;-141.48;100.00;69781.59;5190448;28;20044;-55
2022/04/30 00:55:09;;;;;;;9.23;8.52;;;;;;;-141.48;100.00;69781.59;5190244;28;20575;-55
2022/04/30 00:57:43;;;;;;;9.75;9.10;;;;;;;-141.48;100.00;69781.59;5190572;28;20068;-54
2022/04/30 01:00:14;;;;;;;9.88;9.10;;;;;;;-141.48;100.00;69781.59;5190453;28;20021;-54
2022/04/30 01:02:44;;;;;;;10.73;8.88;;;;;;;-141.48;100.00;69781.59;5190569;28;20489;-56
2022/04/30 01:05:15;;;;;;;9.98;8.98;;;;;;;-141.48;100.00;69781.59;5190021;28;20512;-58
2022/04/30 01:07:47;;;;;;;9.55;8.85;;;;;;;-141.48;100.00;69781.59;5190362;28;20075;-57
2022/04/30 01:10:18;;;;;;;8.70;8.10;;;;;;;-141.48;100.00;69781.59;5190339;28;20083;-55
2022/04/30 01:12:48;;;;;;;10.35;9.35;;;;;;;-141.48;100.00;69781.59;5206642;28;20116;-54
2022/04/30 01:15:20;;;;;;;8.25;7.65;;;;;;;-141.48;100.00;69781.59;5189959;28;20021;-53
2022/04/30 01:17:51;;;;;;;8.70;8.23;;;;;;;-141.48;100.00;69781.59;5190031;28;20029;-54
2022/04/30 01:20:23;;;;;;;10.82;9.88;;;;;;;-141.48;100.00;69781.59;5190230;28;20061;-56
2022/04/30 01:22:54;;;;;;;16.15;8.65;;;;;;;-141.48;100.00;69781.59;5190018;28;20026;-54
2022/04/30 01:25:25;;;;;;;9.38;7.45;;;;;;;-141.48;100.00;69781.59;5205777;28;20416;-57
2022/04/30 01:27:57;;;;;;;9.75;8.95;;;;;;;-141.48;100.00;69781.59;5189725;28;20054;-55
2022/04/30 01:30:28;;;;;;;9.13;8.35;;;;;;;-141.48;100.00;69781.59;5189546;28;20040;-54
2022/04/30 01:38:39;;;;;;;9.15;7.47;;;;;;;-141.48;100.00;69781.59;5207088;28;20561;-56
2022/04/30 01:41:10;;;;;;;7.95;7.07;;;;;;;-141.48;100.00;69781.59;5189377;28;20409;-54
2022/04/30 01:43:40;;;;;;;10.85;8.95;;;;;;;-141.48;100.00;69781.59;5188866;28;20066;-54
2022/04/30 01:46:13;;;;;;;11.93;6.80;;;;;;;-141.48;100.00;69781.59;5189230;28;20029;-54
2022/04/30 01:48:45;;;;;;;8.60;7.97;;;;;;;-141.48;100.00;69781.59;5205663;28;20159;-54
2022/04/30 01:51:16;;;;;;;8.38;7.63;;;;;;;-141.48;100.00;69781.59;5189095;28;20040;-55
2022/04/30 01:53:46;;;;;;;8.93;8.32;;;;;;;-141.48;100.00;69781.59;5188626;28;20415;-56
2022/04/30 01:56:16;;;;;;;8.27;7.78;;;;;;;-141.48;100.00;69781.59;5189092;28;20029;-57
2022/04/30 01:58:47;;;;;;;9.40;8.23;;;;;;;-141.48;100.00;69781.59;5188920;28;20037;-57
2022/04/30 02:01:17;;;;;;;8.35;7.47;;;;;;;-141.48;100.00;69781.59;5206637;28;20383;-56
2022/04/30 02:03:51;;;;;;;7.03;6.55;;;;;;;-141.48;100.00;69781.59;5188689;28;20072;-56
2022/04/30 02:06:22;;;;;;;9.05;8.45;;;;;;;-141.48;100.00;69781.59;5205172;28;20112;-57
2022/04/30 02:08:53;;;;;;;7.72;7.22;;;;;;;-141.48;100.00;69781.59;5188893;28;20030;-58
2022/04/30 02:11:23;;;;;;;9.75;8.88;;;;;;;-141.48;100.00;69781.59;5188632;28;20025;-57
2022/04/30 02:13:58;;;;;;;9.77;7.05;;;;;;;-141.48;100.00;69781.59;5204702;28;20049;-57
2022/04/30 02:16:31;;;;;;;8.25;7.65;;;;;;;-141.48;100.00;69781.59;5188541;28;20083;-56
2022/04/30 02:19:03;;;;;;;8.90;8.10;;;;;;;-141.48;100.00;69781.59;5188545;28;20388;-56
2022/04/30 02:21:36;;;;;;;13.95;8.50;;;;;;;-141.48;100.00;69781.59;5188390;28;20036;-55
2022/04/30 02:24:07;;;;;;;9.40;8.48;;;;;;;-141.48;100.00;69781.59;5188030;28;20052;-57
2022/04/30 02:26:38;;;;;;;11.55;8.13;;;;;;;-141.48;100.00;69781.59;5188287;28;20216;-57
2022/04/30 02:29:10;;;;;;;8.25;7.55;;;;;;;-141.48;100.00;69781.59;5204771;28;20022;-57
2022/04/30 02:31:41;;;;;;;9.70;8.77;;;;;;;-141.48;100.00;69781.59;5188633;28;20041;-55
2022/04/30 02:34:11;;;;;;;9.68;8.88;;;;;;;-141.48;100.00;69781.59;5188124;28;20026;-57
2022/04/30 02:36:41;;;;;;;8.65;8.15;;;;;;;-141.48;100.00;69781.59;5204275;28;20026;-56
2022/04/30 02:39:12;;;;;;;11.35;8.30;;;;;;;-141.48;100.00;69781.59;5205538;28;20060;-58
2022/04/30 02:41:42;;;;;;;7.25;6.75;;;;;;;-141.48;100.00;69781.59;5188280;28;20076;-58
2022/04/30 02:44:13;;;;;;;8.77;7.57;;;;;;;-141.48;100.00;69781.59;5197186;23;20132;-79
2022/04/30 02:46:45;;;;;;;7.43;6.82;;;;;;;-141.48;100.00;69781.59;5185607;28;20018;-80
2022/04/30 02:49:16;;;;;;;8.77;8.18;;;;;;;-141.48;100.00;69781.59;5188755;28;20487;-80
2022/04/30 02:51:48;;;;;;;8.90;8.30;;;;;;;-141.48;100.00;69781.59;5189810;28;20028;-80
2022/04/30 02:54:19;;;;;;;10.00;9.02;;;;;;;-141.48;100.00;69781.59;5189759;28;20460;-79
2022/04/30 02:56:49;;;;;;;9.73;8.65;;;;;;;-141.48;100.00;69781.59;5188446;28;20049;-79
2022/04/30 03:02:08;;;;;;;9.88;9.07;;;;;;;-141.48;100.00;69781.59;5190734;28;20092;-80
2022/04/30 03:04:41;;;;;;;9.68;9.15;;;;;;;-141.48;100.00;69781.59;5188746;28;20369;-80
2022/04/30 03:07:19;;;;;;;11.45;8.77;;;;;;;-141.48;100.00;69781.59;5190326;28;20480;-80
2022/04/30 03:09:50;;;;;;;10.98;9.98;;;;;;;-141.48;100.00;69781.59;5190269;28;20430;-81
2022/04/30 03:12:21;;;;;;;10.38;8.43;;;;;;;-141.48;100.00;69781.59;5189916;28;20040;-80
2022/04/30 03:15:09;;;;;;;9.57;8.68;;;;;;;-141.48;100.00;69781.59;5190006;28;20037;-80
2022/04/30 03:23:28;;;;;;;10.15;9.35;;;;;;;-141.48;100.00;69781.59;5190209;28;20396;-81
2022/04/30 03:25:59;;;;;;;9.52;8.90;;;;;;;-141.48;100.00;69781.59;5190093;28;20026;-80
2022/04/30 03:28:30;;;;;;;11.77;10.95;;;;;;;-141.48;100.00;69781.59;5189029;28;20519;-80
2022/04/30 03:31:00;;;;;;;10.68;9.45;;;;;;;-141.48;100.00;69781.59;5189125;28;20208;-82
2022/04/30 03:33:31;;;;;;;11.43;10.48;;;;;;;-141.48;100.00;69781.59;5190798;28;20607;-82
2022/04/30 03:36:02;;;;;;;11.23;10.25;;;;;;;-141.48;100.00;69781.59;5188673;28;20026;-81
2022/04/30 03:38:33;;;;;;;11.60;10.45;;;;;;;-141.48;100.00;69781.59;5206285;28;20025;-83
2022/04/30 03:41:05;;;;;;;12.05;10.70;;;;;;;-141.48;100.00;69781.59;5193412;28;20049;-80
2022/04/30 03:43:36;;;;;;;13.55;11.00;;;;;;;-141.48;100.00;69781.59;5200425;28;20037;-81
2022/04/30 03:46:08;;;;;;;10.13;9.38;;;;;;;-141.48;100.00;69781.59;5192587;28;20052;-81
2022/04/30 03:48:51;;;;;;;12.13;10.98;;;;;;;-141.48;100.00;69781.59;5194322;28;20376;-81
2022/04/30 03:51:22;;;;;;;13.77;9.52;;;;;;;-141.48;100.00;69781.59;5193574;28;20376;-80
2022/04/30 03:53:53;;;;;;;16.08;11.75;;;;;;;-141.48;100.00;69781.59;5190381;28;20030;-80
2022/04/30 03:56:24;;;;;;;11.15;10.45;;;;;;;-141.48;100.00;69781.59;5206320;28;20620;-80
2022/04/30 03:58:54;;;;;;;12.57;11.27;;;;;;;-141.48;100.00;69781.59;5191143;28;20480;-81
2022/04/30 04:01:42;;;;;;;17.48;13.15;;;;;;;-141.48;100.00;69781.59;5190754;28;20033;-81
2022/04/30 04:04:13;;;;;;;13.13;12.00;;;;;;;-141.48;100.00;69781.59;5206200;28;20049;-82
2022/04/30 04:06:43;;;;;;;15.27;11.05;;;;;;;-141.48;100.00;69781.59;5191242;28;20476;-82
2022/04/30 04:09:13;;;;;;;13.20;12.10;;;;;;;-141.48;100.00;69781.59;5191503;28;20440;-82
2022/04/30 04:11:44;;;;;;;14.82;12.93;;;;;;;-141.48;100.00;69781.59;5191340;28;20152;-82
2022/04/30 04:19:58;;;;;;;13.55;12.43;;;;;;;-141.48;100.00;69781.59;5190526;28;20041;-81
2022/04/30 04:22:28;;;;;;;12.55;11.65;;;;;;;-141.48;100.00;69781.59;5191257;28;20030;-82
2022/04/30 04:27:48;;;;;;;13.48;12.27;;;;;;;-141.48;100.00;69781.59;5191417;28;20129;-82
2022/04/30 04:30:18;;;;;;;11.00;9.95;;;;;;;-141.48;100.00;69781.59;5205739;28;20057;-82
2022/04/30 04:32:49;;;;;;;12.00;11.02;;;;;;;-141.48;100.00;69781.59;5190644;28;20120;-82
2022/04/30 04:35:20;;;;;;;16.65;13.20;;;;;;;-141.48;100.00;69781.59;5190911;28;20033;-82
2022/04/30 04:37:50;;;;;;;14.48;13.32;;;;;;;-141.48;100.00;69781.59;5191467;28;20030;-82
2022/04/30 04:40:21;;;;;;;12.98;12.05;;;;;;;-141.48;100.00;69781.59;5190886;28;20086;-81
2022/04/30 04:42:52;;;;;;;14.65;12.30;;;;;;;-141.48;100.00;69781.59;5190431;28;20032;-82
2022/04/30 04:45:23;;;;;;;14.98;13.63;;;;;;;-141.48;100.00;69781.59;5190675;28;20483;-82
2022/04/30 04:47:54;;;;;;;15.77;14.18;;;;;;;-141.48;100.00;69781.59;5206287;28;20022;-81
2022/04/30 04:50:24;;;;;;;15.70;14.40;;;;;;;-141.48;100.00;69781.59;5191304;28;20085;-81
2022/04/30 04:52:55;;;;;;;17.45;13.88;;;;;;;-141.48;100.00;69781.59;5191434;28;20030;-82
2022/04/30 04:55:25;;;;;;;15.07;13.35;;;;;;;-141.48;100.00;69781.59;5205619;28;20026;-81
2022/04/30 04:57:56;;;;;;;13.80;12.27;;;;;;;-141.48;100.00;69781.59;5191224;28;20029;-82
2022/04/30 05:00:26;;;;;;;13.10;12.05;;;;;;;-141.48;100.00;69781.59;5192086;28;20129;-82
2022/04/30 05:02:57;;;;;;;15.10;12.73;;;;;;;-141.48;100.00;69781.59;5194092;28;20014;-83
2022/04/30 05:05:27;;;;;;;14.90;13.30;;;;;;;-141.48;100.00;69781.59;5199363;28;20109;-82
2022/04/30 05:07:58;;;;;;;14.65;13.55;;;;;;;-141.48;100.00;69781.59;5195521;28;20021;-83
2022/04/30 05:10:28;;;;;;;14.05;12.93;;;;;;;-141.48;100.00;69781.59;5195404;28;20060;-81
2022/04/30 05:12:59;;;;;;;13.32;12.20;;;;;;;-141.48;100.00;69781.59;5195708;28;20477;-82
2022/04/30 05:15:29;;;;;;;13.68;12.52;;;;;;;-141.48;100.00;69781.59;5196019;28;20037;-83
2022/04/30 05:18:00;;;;;;;14.05;12.93;;;;;;;-141.48;100.00;69781.59;5197980;28;20026;-84
2022/04/30 05:20:30;;;;;;;13.50;12.27;;;;;;;-141.48;100.00;69781.59;5199598;28;20030;-84
2022/04/30 05:23:01;;;;;;;13.73;12.73;;;;;;;-141.48;100.00;69781.59;5200156;28;20026;-83
2022/04/30 05:25:31;;;;;;;18.90;13.13;;;;;;;-141.48;100.00;69781.59;5197905;28;20030;-82
2022/04/30 05:28:02;;;;;;;14.52;13.18;;;;;;;-141.48;100.00;69781.59;5200373;28;20025;-82
2022/04/30 05:30:32;;;;;;;13.40;12.38;;;;;;;-141.48;100.00;69781.59;5199990;28;20021;-82
2022/04/30 05:33:03;;;;;;;14.52;13.52;;;;;;;-141.48;100.00;69781.59;5198822;28;20029;-83
2022/04/30 05:35:33;;;;;;;14.90;13.48;;;;;;;-141.48;100.00;69781.59;5203941;28;20033;-83
2022/04/30 05:38:04;;;;;;;14.60;13.43;;;;;;;-141.48;100.00;69781.59;5204733;28;20034;-82
2022/04/30 05:40:35;;;;;;;16.38;14.98;;;;;;;-141.48;100.00;69781.59;5201199;28;20022;-82
2022/04/30 05:43:05;;;;;;;13.48;12.23;;;;;;;-141.48;100.00;69781.59;5198357;28;20092;-81
2022/04/30 05:45:35;;;;;;;13.10;12.02;;;;;;;-141.48;100.00;69781.59;5200743;28;20238;-80
2022/04/30 05:48:06;;;;;;;16.63;14.55;;;;;;;-141.48;100.00;69781.59;5201441;28;20082;-81
2022/04/30 05:50:37;;;;;;;15.45;14.25;;;;;;;-141.48;100.00;69781.59;5200425;28;20113;-83
2022/04/30 05:53:07;;;;;;;14.27;12.82;;;;;;;-141.48;100.00;69781.59;5200013;28;20076;-82
2022/04/30 05:55:39;;;;;;;13.88;12.18;;;;;;;-141.48;100.00;69781.59;5197768;28;20507;-81
2022/04/30 05:58:13;;;;;;;15.50;13.88;;;;;;;-141.48;100.00;69781.59;5198954;28;20022;-82
2022/04/30 06:00:43;;;;;;;18.00;14.60;;;;;;;-141.48;100.00;69781.59;5199977;28;20028;-79
2022/04/30 06:03:13;;;;;;;13.73;12.45;;;;;;;-141.48;100.00;69781.59;5201482;28;20077;-81
2022/04/30 06:05:44;;;;;;;14.95;13.85;;;;;;;-141.48;100.00;69781.59;5203238;28;20037;-80
2022/04/30 06:08:14;;;;;;;13.23;12.23;;;;;;;-141.48;100.00;69781.59;5199146;28;20037;-81
2022/04/30 06:10:45;;;;;;;14.93;13.63;;;;;;;-141.48;100.00;69781.59;5193033;28;20092;-82
2022/04/30 06:13:15;;;;;;;15.48;13.10;;;;;;;-141.48;100.00;69781.59;5191712;28;20029;-82
2022/04/30 06:15:46;;;;;;;14.10;12.60;;;;;;;-141.48;100.00;69781.59;5191884;28;20025;-82
2022/04/30 06:18:16;;;;;;;12.93;11.98;;;;;;;-141.48;100.00;69781.59;5193877;28;20037;-82
2022/04/30 06:20:47;;;;;;;23.33;14.27;;;;;;;-141.48;100.00;69781.59;5193279;28;20435;-82
2022/04/30 06:23:18;;;;;;;15.40;13.93;;;;;;;-141.48;100.00;69781.59;5192567;28;20081;-83
2022/04/30 06:25:49;;;;;;;12.35;11.48;;;;;;;-141.48;100.00;69781.59;5194236;28;20030;-83
2022/04/30 06:28:20;;;;;;;15.45;14.20;;;;;;;-141.48;100.00;69781.59;5194031;28;20036;-83
2022/04/30 06:30:50;;;;;;;13.10;11.77;;;;;;;-141.48;100.00;69781.59;5209135;28;20034;-82
2022/04/30 06:33:21;;;;;;;13.80;10.85;;;;;;;-141.48;100.00;69781.59;5209170;28;20026;-82
2022/04/30 06:35:51;;;;;;;14.27;12.32;;;;;;;-141.48;100.00;69781.59;5195709;28;20105;-82
2022/04/30 06:38:22;;;;;;;15.15;11.55;;;;;;;-141.48;100.00;69781.59;5196227;28;20030;-82
2022/04/30 06:40:52;;;;;;;12.98;11.70;;;;;;;-141.48;100.00;69781.59;5193485;28;20022;-83
2022/04/30 06:43:23;;;;;;;11.55;10.60;;;;;;;-141.48;100.00;69781.59;5194010;28;20032;-82
2022/04/30 06:45:53;;;;;;;14.93;10.95;;;;;;;-141.48;100.00;69781.59;5195535;28;20030;-83
2022/04/30 06:48:24;;;;;;;11.13;10.27;;;;;;;-141.48;100.00;69781.59;5212103;28;20499;-84
2022/04/30 06:50:54;;;;;;;11.57;10.73;;;;;;;-141.48;100.00;69781.59;5194528;28;20026;-83
2022/04/30 06:59:04;;;;;;;22.35;10.32;;;;;;;-141.48;100.00;69781.59;5195212;28;20036;-84
2022/04/30 07:01:42;;;;;;;11.77;10.68;;;;;;;-141.48;100.00;69781.59;5194854;28;20036;-83
2022/04/30 07:04:14;;;;;;;12.40;10.00;;;;;;;-141.48;100.00;69781.59;5197519;28;20025;-84
2022/04/30 07:06:47;;;;;;;8.85;7.55;;;;;;;-141.48;100.00;69781.59;5212989;28;20092;-84
2022/04/30 07:09:18;;;;;;;10.00;8.98;;;;;;;-141.48;100.00;69781.59;5200972;28;20083;-84
2022/04/30 07:11:49;;;;;;;9.43;8.80;;;;;;;-141.48;100.00;69781.59;5201309;28;20055;-85
2022/04/30 07:14:19;;;;;;;9.18;8.45;;;;;;;-141.48;100.00;69781.59;5202264;28;20026;-84
2022/04/30 07:16:49;;;;;;;8.13;7.60;;;;;;;-141.48;100.00;69781.59;5202898;28;20030;-84
2022/04/30 07:19:19;;;;;;;11.18;7.75;;;;;;;-141.48;100.00;69781.59;5202554;28;20026;-84
2022/04/30 07:21:50;;;;;;;12.57;8.30;;;;;;;-141.48;100.00;69781.59;5200247;28;20037;-84
2022/04/30 07:24:20;;;;;;;6.78;6.10;;;;;;;-141.48;100.00;69781.59;5214026;28;20030;-84
2022/04/30 07:26:51;;;;;;;6.10;5.70;;;;;;;-141.48;100.00;69781.59;5213560;28;20365;-84
2022/04/30 07:29:21;;;;;;;6.88;6.22;;;;;;;-141.48;100.00;69781.59;5194974;28;20034;-85
2022/04/30 07:31:52;;;;;;;7.88;7.15;;;;;;;-141.48;100.00;69781.59;5190232;28;20037;-84
2022/04/30 07:34:23;;;;;;;8.70;8.00;;;;;;;-141.48;100.00;69781.59;5193368;28;20028;-83
2022/04/30 07:36:53;;;;;;;7.90;7.38;;;;;;;-141.48;100.00;69781.59;5196374;28;20060;-83
2022/04/30 07:39:24;;;;;;;7.15;6.60;;;;;;;-141.48;100.00;69781.59;5190931;28;20033;-83
2022/04/30 07:41:54;;;;;;;7.72;6.35;;;;;;;-141.48;100.00;69781.59;5192379;28;20081;-83
2022/04/30 07:44:26;;;;;;;6.95;6.40;;;;;;;-141.48;100.00;69781.59;5192354;28;20037;-84
2022/04/30 07:46:57;;;;;;;6.43;5.82;;;;;;;-141.48;100.00;69781.59;5191478;28;20022;-83
2022/04/30 07:49:28;;;;;;;6.35;5.75;;;;;;;-141.48;100.00;69781.59;5192075;28;20036;-84
2022/04/30 07:51:58;;;;;;;9.85;5.57;;;;;;;-141.48;100.00;69781.59;5189859;28;20025;-85
2022/04/30 07:54:28;;;;;;;7.30;5.53;;;;;;;-141.48;100.00;69781.59;5192836;28;20346;-81
2022/04/30 07:56:59;;;;;;;6.57;6.07;;;;;;;-141.48;100.00;69781.59;5192292;28;20392;-83
2022/04/30 07:59:30;;;;;;;12.82;7.20;;;;;;;-141.48;100.00;69781.59;5192935;28;20049;-82
2022/04/30 08:02:00;;;;;;;8.27;7.70;;;;;;;-141.48;100.00;69781.59;5192038;28;20092;-86
2022/04/30 08:04:31;;;;;;;8.13;7.53;;;;;;;-141.48;100.00;69781.59;5193591;28;20105;-82
2022/04/30 08:07:01;;;;;;;8.43;7.55;;;;;;;-141.48;100.00;69781.59;5192701;28;20025;-85
2022/04/30 08:09:31;;;;;;;7.45;6.85;;;;;;;-141.48;100.00;69781.59;5193551;28;20037;-84
2022/04/30 08:12:02;;;;;;;7.53;6.90;;;;;;;-141.48;100.00;69781.59;5194614;28;20037;-84
2022/04/30 08:14:32;;;;;;;7.93;7.43;;;;;;;-141.48;100.00;69781.59;5200084;28;20125;-82
2022/04/30 08:17:03;;;;;;;9.23;7.38;;;;;;;-141.48;100.00;69781.59;5200338;28;20204;-84
2022/04/30 08:19:33;;;;;;;8.82;8.00;;;;;;;-141.48;100.00;69781.59;5199223;28;20044;-84
2022/04/30 08:22:04;;;;;;;9.48;8.77;;;;;;;-141.48;100.00;69781.59;5199313;28;20018;-84
2022/04/30 08:24:35;;;;;;;7.40;6.80;;;;;;;-141.48;100.00;69781.59;5195516;28;20076;-84
2022/04/30 08:27:05;;;;;;;7.78;7.20;;;;;;;-141.48;100.00;69781.59;5200739;28;20060;-83
2022/04/30 08:29:36;;;;;;;6.95;6.32;;;;;;;-141.48;100.00;69781.59;5206438;28;20013;-84
2022/04/30 08:32:06;;;;;;;9.00;8.15;;;;;;;-141.48;100.00;69781.59;5203218;28;20025;-84
2022/04/30 08:34:37;;;;;;;7.57;6.88;;;;;;;-141.48;100.00;69781.59;5194839;28;20030;-84
2022/04/30 08:37:08;;;;;;;8.57;7.78;;;;;;;-141.48;100.00;69781.59;5199456;28;20025;-84
2022/04/30 08:39:38;;;;;;;9.70;8.80;;;;;;;-141.48;100.00;69781.59;5206121;28;20026;-83
2022/04/30 08:42:09;;;;;;;9.98;8.95;;;;;;;-141.48;100.00;69781.59;5206400;28;20022;-84
2022/04/30 08:44:40;;;;;;;7.55;7.05;;;;;;;-141.48;100.00;69781.59;5209111;28;20022;-84
2022/04/30 08:47:13;;;;;;;9.43;7.10;;;;;;;-141.48;100.00;69781.59;5208247;28;20037;-83
2022/04/30 08:49:44;;;;;;;7.18;5.93;;;;;;;-141.48;100.00;69781.59;5203184;28;20439;-83
2022/04/30 08:52:15;;;;;;;7.65;6.13;;;;;;;-141.48;100.00;69781.59;5202130;28;20093;-84
2022/04/30 08:54:45;;;;;;;6.82;6.43;;;;;;;-141.48;100.00;69781.59;5200678;28;20407;-85
2022/04/30 08:57:16;;;;;;;7.20;6.70;;;;;;;-141.48;100.00;69781.59;5201322;28;20106;-85
2022/04/30 08:59:46;;;;;;;6.75;6.28;;;;;;;-141.48;100.00;69781.59;5196125;28;20022;-85
2022/04/30 09:02:17;;;;;;;6.32;5.93;;;;;;;-141.48;100.00;69781.59;5196382;28;20061;-84
2022/04/30 09:04:48;;;;;;;6.57;6.13;;;;;;;-141.48;100.00;69781.59;5196473;28;20026;-83
2022/04/30 09:07:21;;;;;;;6.63;5.95;;;;;;;-141.48;100.00;69781.59;5196417;28;20078;-84
2022/04/30 09:09:59;;;;;;;5.85;5.20;;;;;;;-141.48;100.00;69781.59;5195104;28;20051;-83
2022/04/30 09:12:33;;;;;;;8.13;7.05;;;;;;;-141.48;100.00;69781.59;5195635;28;20034;-84
2022/04/30 09:15:13;;;;;;;7.47;6.80;;;;;;;-141.48;100.00;69781.59;5198831;28;20025;-84
2022/04/30 09:17:53;;;;;;;;;;;;;;;-141.48;100.00;69781.59;5196541;28;20026;-85
2022/04/30 09:20:25;;;;;;;6.20;5.75;;;;;;;-141.48;100.00;69781.59;5211011;28;19920;-83
2022/04/30 09:22:56;;;;;;;6.45;5.97;;;;;;;-141.48;100.00;69781.59;5194911;28;20029;-84
2022/04/30 09:25:27;;;;;;;5.55;5.10;;;;;;;-141.48;100.00;69781.59;5193885;28;20523;-84
2022/04/30 09:27:57;;;;;;;11.70;8.00;;;;;;;-141.48;100.00;69781.59;5193716;28;20018;-84
2022/04/30 09:30:32;;;;;;;6.55;6.05;;;;;;;-141.48;100.00;69781.59;5196442;28;20392;-84
2022/04/30 09:33:05;;;;;;;7.43;6.82;;;;;;;-141.48;100.00;69781.59;5193940;28;20048;-84
2022/04/30 09:38:25;;;;;;;8.73;7.90;;;;;;;-141.48;100.00;69781.59;5195301;28;20335;-83
2022/04/30 09:40:59;;;;;;;8.57;7.38;;;;;;;-141.48;100.00;69781.59;5194138;28;20018;-84
2022/04/30 09:43:30;;;;;;;10.73;6.60;;;;;;;-141.48;100.00;69781.59;5192299;28;20030;-84
2022/04/30 09:46:08;;;;;;;6.60;5.63;;;;;;;-141.48;100.00;69781.59;5192999;28;20446;-84
2022/04/30 09:54:16;;;;;;;8.20;6.18;;;;;;;-141.48;100.00;69781.59;5195187;28;20447;-85
2022/04/30 09:56:49;;;;;;;7.35;4.70;;;;;;;-141.48;100.00;69781.59;5195551;28;20085;-85
2022/04/30 09:59:22;;;;;;;8.38;6.18;;;;;;;-141.48;100.00;69781.59;5195244;28;20032;-84
2022/04/30 10:01:53;;;;;;;5.15;4.72;;;;;;;-141.48;100.00;69781.59;5196151;28;20100;-83
2022/04/30 10:04:24;;;;;;;5.07;4.43;;;;;;;-141.48;100.00;69781.59;5194593;28;20053;-83
2022/04/30 10:06:59;;;;;;;6.68;5.95;;;;;;;-141.48;100.00;69781.59;5198685;28;20018;-83
2022/04/30 10:09:42;;;;;;;5.05;4.55;;;;;;;-141.48;100.00;69781.59;5194487;28;20036;-83
2022/04/30 10:12:34;;;;;;;4.68;4.47;;;;;;;-141.48;100.00;69781.59;5195524;28;20029;-84
2022/04/30 10:15:23;;;;;;;10.57;5.07;;;;;;;-141.48;100.00;69781.59;5207988;28;20571;-84
2022/04/30 10:17:57;;;;;;;4.18;3.80;;;;;;;-141.48;100.00;69781.59;5194608;28;20036;-83
2022/04/30 10:20:37;;;;;;;4.55;4.15;;;;;;;-141.48;100.00;69781.59;5196427;28;20052;-82
2022/04/30 10:23:07;;;;;;;4.88;4.53;;;;;;;-141.48;100.00;69781.59;5196130;28;20029;-82
2022/04/30 10:25:48;;;;;;;4.70;4.40;;;;;;;-141.48;100.00;69781.59;5193614;28;20022;-83
2022/04/30 10:28:23;;;;;;;5.90;5.05;;;;;;;-141.48;100.00;69781.59;5195188;28;20053;-85
2022/04/30 10:31:01;;;;;;;5.53;5.13;;;;;;;-141.48;100.00;69781.59;5197350;28;20018;-83
2022/04/30 10:33:33;;;;;;;6.22;5.78;;;;;;;-141.48;100.00;69781.59;5194086;28;20030;-84
2022/04/30 10:36:12;;;;;;;5.85;5.45;;;;;;;-141.48;100.00;69781.59;5193249;28;20021;-84
2022/04/30 10:39:02;;;;;;;6.43;6.03;;;;;;;-141.48;100.00;69781.59;5195126;28;20377;-84
2022/04/30 10:41:42;;;;;;;9.45;5.40;;;;;;;-141.48;100.00;69781.59;5192467;28;20033;-84
2022/04/30 10:44:13;;;;;;;5.97;5.47;;;;;;;-141.48;100.00;69781.59;5192621;28;20022;-84
2022/04/30 10:46:45;;;;;;;6.60;6.07;;;;;;;-141.48;100.00;69781.59;5194551;28;20420;-83
2022/04/30 10:49:15;;;;;;;7.22;6.63;;;;;;;-141.48;100.00;69781.59;5195245;28;20053;-83
2022/04/30 10:51:46;;;;;;;6.40;6.03;;;;;;;-141.48;100.00;69781.59;5197151;28;20502;-84
2022/04/30 10:54:18;;;;;;;7.75;6.93;;;;;;;-141.48;100.00;69781.59;5202679;28;20022;-82
2022/04/30 10:57:01;;;;;;;6.80;6.32;;;;;;;-141.48;100.00;69781.59;5195743;28;20503;-83
2022/04/30 10:59:31;;;;;;;8.55;6.70;;;;;;;-141.48;100.00;69781.59;5193893;28;20025;-83
2022/04/30 11:02:02;;;;;;;6.68;6.18;;;;;;;-141.48;100.00;69781.59;5194692;28;20159;-83
2022/04/30 11:04:34;;;;;;;5.90;5.40;;;;;;;-141.48;100.00;69781.59;5193704;28;20026;-83
2022/04/30 11:07:05;;;;;;;8.90;6.45;;;;;;;-141.48;100.00;69781.59;5201054;28;20129;-83
2022/04/30 11:09:43;;;;;;;6.88;6.40;;;;;;;-141.48;100.00;69781.59;5199340;28;20318;-85
2022/04/30 11:12:14;;;;;;;7.20;6.57;;;;;;;-141.48;100.00;69781.59;5216188;28;20026;-84
2022/04/30 11:14:46;;;;;;;9.45;7.32;;;;;;;-141.48;100.00;69781.59;5198603;28;20068;-84
2022/04/30 11:17:16;;;;;;;7.18;6.47;;;;;;;-141.48;100.00;69781.59;5199929;28;20060;-82
2022/04/30 11:19:48;;;;;;;6.32;5.82;;;;;;;-141.48;100.00;69781.59;5198338;28;20077;-85
2022/04/30 11:22:20;;;;;;;6.32;5.85;;;;;;;-141.48;100.00;69781.59;5197968;28;20292;-84
2022/04/30 11:24:57;;;;;;;7.35;6.70;;;;;;;-141.48;100.00;69781.59;5202015;28;20026;-85
2022/04/30 11:27:34;;;;;;;5.38;4.97;;;;;;;-141.48;100.00;69781.59;5208025;28;20014;-84
2022/04/30 11:30:05;;;;;;;6.80;6.28;;;;;;;-141.48;100.00;69781.59;5208273;28;20014;-84
2022/04/30 11:32:36;;;;;;;5.97;5.45;;;;;;;-141.48;100.00;69781.59;5206038;28;20033;-83
2022/04/30 11:35:07;;;;;;;8.43;5.75;;;;;;;-141.48;100.00;69781.59;5202837;28;20030;-84
2022/04/30 11:37:39;;;;;;;9.20;6.28;;;;;;;-141.48;100.00;69781.59;5197132;28;20044;-81
2022/04/30 11:40:11;;;;;;;6.40;5.43;;;;;;;-141.48;100.00;69781.59;5195944;28;20029;-83
2022/04/30 11:42:41;;;;;;;5.88;5.38;;;;;;;-141.48;100.00;69781.59;5197181;28;20029;-83
2022/04/30 11:45:22;;;;;;;9.10;8.50;;;;;;;-141.48;100.00;69781.59;5194795;28;20060;-83
2022/04/30 11:47:53;;;;;;;5.47;5.05;;;;;;;-141.48;100.00;69781.59;5196259;28;20022;-82
2022/04/30 11:50:25;;;;;;;8.77;5.93;;;;;;;-141.48;100.00;69781.59;5198644;28;20228;-86
2022/04/30 11:52:58;;;;;;;10.50;7.75;;;;;;;-141.48;100.00;69781.59;5200394;28;20029;-85
2022/04/30 11:55:29;;;;;;;7.80;6.50;;;;;;;-141.48;100.00;69781.59;5194180;28;20026;-86
2022/04/30 11:58:03;;;;;;;6.63;6.10;;;;;;;-141.48;100.00;69781.59;5191925;28;20045;-86
2022/04/30 12:00:35;;;;;;;5.20;4.95;;;;;;;-141.48;100.00;69781.59;5193228;28;20022;-86
2022/04/30 12:03:06;;;;;;;7.30;6.70;;;;;;;-141.48;100.00;69781.59;5191779;28;20022;-85